createdAt,value
2018-09-26T00:00:13.811Z,28.95
2018-09-26T00:02:47.578Z,27.95
2018-09-26T00:05:17.214Z,28.50
2018-09-26T00:07:45.469Z,30.90
2018-09-26T00:10:13.810Z,29.87
2018-09-26T00:12:43.155Z,26.10
2018-09-26T00:15:11.601Z,30.08
2018-09-26T00:17:40.015Z,26.10
2018-09-26T00:20:08.934Z,26.95
2018-09-26T00:22:37.166Z,25.72
2018-09-26T00:25:05.427Z,28.20
2018-09-26T00:27:34.134Z,23.35
2018-09-26T00:30:02.390Z,27.60
2018-09-26T00:32:30.701Z,27.52
2018-09-26T00:35:00.640Z,26.55
2018-09-26T00:37:29.006Z,26.12
2018-09-26T00:39:57.194Z,26.82
2018-09-26T00:42:25.583Z,24.47
2018-09-26T00:44:53.906Z,25.68
2018-09-26T00:47:22.150Z,25.17
2018-09-26T00:49:50.909Z,23.12
2018-09-26T00:52:19.270Z,24.80
2018-09-26T00:54:47.635Z,22.45
2018-09-26T00:57:16.765Z,23.67
2018-09-26T00:59:45.079Z,24.40
2018-09-26T01:02:13.466Z,24.30
2018-09-26T01:04:42.115Z,23.77
2018-09-26T01:07:10.354Z,20.77
2018-09-26T01:09:38.820Z,20.88
2018-09-26T01:12:07.117Z,23.27
2018-09-26T01:14:35.368Z,21.55
2018-09-26T01:17:03.647Z,20.65
2018-09-26T01:19:33.608Z,21.02
2018-09-26T01:22:01.846Z,21.62
2018-09-26T01:24:30.091Z,21.12
2018-09-26T01:26:58.469Z,19.82
2018-09-26T01:29:26.722Z,19.52
2018-09-26T01:31:55.058Z,18.55
2018-09-26T01:34:23.303Z,19.02
2018-09-26T01:36:52.256Z,19.42
2018-09-26T01:39:21.562Z,21.27
2018-09-26T01:41:49.801Z,20.72
2018-09-26T01:44:18.218Z,18.75
2018-09-26T01:46:46.819Z,17.75
2018-09-26T01:49:15.242Z,20.55
2018-09-26T01:51:43.574Z,20.30
2018-09-26T01:54:12.155Z,17.42
2018-09-26T01:56:40.687Z,17.07
2018-09-26T01:59:08.913Z,17.98
2018-09-26T02:01:38.117Z,16.93
2018-09-26T02:04:07.925Z,17.02
2018-09-26T02:06:36.179Z,15.68
2018-09-26T02:09:07.498Z,17.67
2018-09-26T02:11:35.837Z,16.73
2018-09-26T02:14:04.226Z,15.25
2018-09-26T02:16:33.101Z,17.32
2018-09-26T02:19:01.347Z,17.02
2018-09-26T02:21:29.646Z,17.25
2018-09-26T02:23:58.135Z,14.70
2018-09-26T02:26:26.373Z,15.48
2018-09-26T02:28:54.684Z,15.00
2018-09-26T02:31:23.369Z,18.27
2018-09-26T02:33:51.627Z,15.32
2018-09-26T02:36:19.930Z,15.40
2018-09-26T02:38:49.122Z,15.35
2018-09-26T02:41:17.452Z,13.35
2018-09-26T02:43:45.690Z,15.28
2018-09-26T02:46:14.562Z,15.32
2018-09-26T02:48:48.331Z,15.83
2018-09-26T02:51:16.749Z,14.20
2018-09-26T02:53:45.298Z,14.70
2018-09-26T02:56:13.521Z,15.75
2018-09-26T02:58:41.861Z,14.03
2018-09-26T03:01:10.147Z,14.00
2018-09-26T03:03:38.410Z,13.93
2018-09-26T03:06:07.649Z,14.10
2018-09-26T03:08:35.957Z,12.98
2018-09-26T03:11:04.362Z,13.93
2018-09-26T03:13:32.589Z,12.95
2018-09-26T03:16:00.834Z,14.07
2018-09-26T03:18:29.066Z,14.83
2018-09-26T03:20:57.453Z,14.30
2018-09-26T03:23:25.726Z,13.10
2018-09-26T03:25:54.027Z,12.07
2018-09-26T03:28:23.254Z,11.93
2018-09-26T03:30:51.500Z,14.03
2018-09-26T03:33:19.805Z,13.70
2018-09-26T03:35:48.392Z,13.50
2018-09-26T03:38:16.626Z,12.18
2018-09-26T03:40:45.850Z,12.60
2018-09-26T03:43:14.123Z,12.33
2018-09-26T03:45:42.678Z,12.82
2018-09-26T03:48:10.904Z,11.70
2018-09-26T03:50:40.417Z,12.40
2018-09-26T03:53:08.725Z,11.70
2018-09-26T03:55:37.051Z,12.60
2018-09-26T03:58:05.330Z,10.60
2018-09-26T04:00:33.573Z,12.63
2018-09-26T04:03:01.979Z,11.75
2018-09-26T04:05:30.782Z,10.72
2018-09-26T04:07:59.046Z,12.07
2018-09-26T04:10:27.288Z,12.15
2018-09-26T04:12:55.902Z,12.03
2018-09-26T04:15:24.133Z,10.80
2018-09-26T04:17:52.375Z,11.53
2018-09-26T04:20:21.008Z,11.65
2018-09-26T04:22:49.323Z,10.70
2018-09-26T04:25:17.771Z,10.95
2018-09-26T04:27:47.111Z,11.25
2018-09-26T04:30:15.405Z,9.58
2018-09-26T04:32:43.686Z,9.40
2018-09-26T04:35:12.158Z,10.55
2018-09-26T04:37:40.400Z,9.53
2018-09-26T04:40:08.638Z,10.13
2018-09-26T04:42:38.626Z,11.65
2018-09-26T04:45:06.898Z,9.70
2018-09-26T04:47:35.225Z,10.32
2018-09-26T04:50:04.075Z,10.90
2018-09-26T04:52:32.316Z,9.18
2018-09-26T04:55:00.550Z,10.20
2018-09-26T04:57:31.769Z,9.63
2018-09-26T05:00:00.152Z,12.40
2018-09-26T05:02:28.403Z,7.92
2018-09-26T05:04:58.754Z,11.03
2018-09-26T05:07:27.162Z,10.65
2018-09-26T05:09:55.486Z,12.98
2018-09-26T05:12:24.130Z,9.33
2018-09-26T05:14:52.511Z,13.60
2018-09-26T05:17:20.702Z,12.25
2018-09-26T05:19:49.542Z,13.18
2018-09-26T05:22:17.873Z,8.38
2018-09-26T05:24:46.175Z,9.10
2018-09-26T05:27:15.185Z,6.40
2018-09-26T05:29:43.424Z,5.83
2018-09-26T05:32:11.669Z,7.62
2018-09-26T05:34:40.350Z,7.40
2018-09-26T05:37:08.793Z,5.15
2018-09-26T05:39:37.222Z,5.42
2018-09-26T05:42:05.665Z,6.62
2018-09-26T05:44:36.030Z,4.83
2018-09-26T05:47:04.258Z,4.25
2018-09-26T05:49:32.521Z,7.87
2018-09-26T05:52:00.765Z,6.70
2018-09-26T05:54:29.411Z,5.87
2018-09-26T05:56:57.655Z,3.12
2018-09-26T05:59:25.929Z,5.87
2018-09-26T06:01:54.438Z,4.22
2018-09-26T06:04:22.693Z,4.03
2018-09-26T06:06:51.014Z,3.95
2018-09-26T06:09:20.499Z,6.05
2018-09-26T06:11:48.821Z,3.60
2018-09-26T06:14:17.226Z,4.80
2018-09-26T06:16:45.841Z,4.65
2018-09-26T06:19:14.166Z,4.35
2018-09-26T06:21:42.491Z,2.80
2018-09-26T06:24:10.877Z,3.70
2018-09-26T06:26:39.214Z,3.47
2018-09-26T06:29:07.502Z,3.72
2018-09-26T06:31:36.635Z,3.65
2018-09-26T06:34:04.881Z,3.70
2018-09-26T06:36:33.114Z,6.35
2018-09-26T06:39:01.674Z,4.40
2018-09-26T06:41:30.056Z,5.97
2018-09-26T06:43:58.382Z,5.42
2018-09-26T06:46:31.002Z,5.83
2018-09-26T06:48:59.266Z,4.40
2018-09-26T06:51:27.600Z,3.47
2018-09-26T06:53:56.776Z,3.25
2018-09-26T06:56:25.004Z,3.33
2018-09-26T06:58:53.255Z,3.40
2018-09-26T07:01:21.691Z,4.47
2018-09-26T07:03:49.963Z,3.02
2018-09-26T07:06:18.377Z,4.35
2018-09-26T07:08:47.246Z,3.58
2018-09-26T07:11:15.558Z,4.92
2018-09-26T07:13:43.790Z,5.15
2018-09-26T07:16:12.784Z,4.47
2018-09-26T07:18:41.030Z,3.00
2018-09-26T07:21:09.291Z,10.32
2018-09-26T07:23:37.618Z,4.15
2018-09-26T07:26:05.868Z,5.03
2018-09-26T07:28:34.090Z,3.52
2018-09-26T07:31:03.062Z,5.92
2018-09-26T07:33:31.363Z,3.58
2018-09-26T07:35:59.590Z,5.33
2018-09-26T07:38:28.319Z,4.17
2018-09-26T07:40:56.540Z,5.45
2018-09-26T07:43:24.891Z,3.92
2018-09-26T07:45:53.996Z,9.65
2018-09-26T07:48:24.106Z,5.92
2018-09-26T07:50:52.349Z,7.30
2018-09-26T07:53:20.642Z,9.23
2018-09-26T07:55:48.882Z,7.05
2018-09-26T07:58:17.270Z,7.65
2018-09-26T08:00:45.574Z,8.55
2018-09-26T08:03:13.846Z,6.00
2018-09-26T08:05:42.330Z,4.65
2018-09-26T08:08:10.569Z,4.12
2018-09-26T08:10:38.837Z,3.40
2018-09-26T08:13:08.163Z,4.20
2018-09-26T08:15:36.397Z,3.65
2018-09-26T08:18:04.675Z,4.92
2018-09-26T08:20:33.104Z,5.05
2018-09-26T08:23:01.549Z,3.58
2018-09-26T08:25:29.939Z,5.78
2018-09-26T08:27:58.314Z,5.28
2018-09-26T08:30:26.639Z,7.03
2018-09-26T08:32:55.035Z,6.37
2018-09-26T08:35:24.301Z,4.08
2018-09-26T08:37:52.601Z,8.00
2018-09-26T08:40:20.831Z,3.40
2018-09-26T08:42:49.336Z,8.03
2018-09-26T08:45:17.561Z,3.62
2018-09-26T08:47:45.782Z,6.50
2018-09-26T08:50:14.844Z,4.20
2018-09-26T08:52:43.145Z,4.22
2018-09-26T08:55:11.458Z,6.83
2018-09-26T08:57:40.324Z,4.85
2018-09-26T09:00:08.742Z,6.62
2018-09-26T09:02:37.048Z,4.08
2018-09-26T09:05:06.173Z,3.62
2018-09-26T09:07:34.403Z,7.08
2018-09-26T09:10:02.653Z,3.70
2018-09-26T09:12:31.222Z,4.30
2018-09-26T09:14:59.463Z,3.67
2018-09-26T09:17:27.920Z,5.30
2018-09-26T09:19:57.841Z,4.65
2018-09-26T09:22:26.154Z,4.33
2018-09-26T09:24:54.395Z,4.55
2018-09-26T09:27:22.967Z,4.72
2018-09-26T09:29:51.136Z,3.92
2018-09-26T09:32:19.523Z,4.25
2018-09-26T09:34:48.168Z,5.72
2018-09-26T09:37:16.410Z,3.85
2018-09-26T09:39:44.755Z,3.33
2018-09-26T09:42:14.024Z,2.90
2018-09-26T09:44:42.254Z,4.28
2018-09-26T09:47:10.504Z,2.80
2018-09-26T09:49:39.259Z,3.02
2018-09-26T09:52:07.878Z,2.22
2018-09-26T09:54:36.140Z,4.90
2018-09-26T09:57:04.603Z,4.37
2018-09-26T09:59:32.852Z,3.77
2018-09-26T10:02:01.090Z,3.35
2018-09-26T10:04:29.387Z,4.35
2018-09-26T10:06:57.718Z,6.95
2018-09-26T10:09:25.954Z,5.28
2018-09-26T10:11:54.230Z,3.40
2018-09-26T10:14:22.500Z,2.90
2018-09-26T10:16:50.688Z,4.92
2018-09-26T10:19:19.403Z,5.40
2018-09-26T10:21:47.627Z,3.22
2018-09-26T10:24:15.891Z,3.10
2018-09-26T10:26:44.846Z,3.40
2018-09-26T10:29:13.161Z,4.08
2018-09-26T10:31:41.384Z,5.08
2018-09-26T10:34:09.914Z,7.92
2018-09-26T10:36:38.138Z,10.20
2018-09-26T10:39:07.871Z,5.85
2018-09-26T10:41:36.766Z,7.35
2018-09-26T10:44:05.244Z,8.43
2018-09-26T10:46:33.613Z,14.15
2018-09-26T10:49:02.328Z,19.85
2018-09-26T10:51:30.638Z,35.55
2018-09-26T10:54:00.702Z,34.27
2018-09-26T10:56:30.389Z,34.20
2018-09-26T10:58:58.551Z,41.08
2018-09-26T11:01:26.853Z,42.75
2018-09-26T11:03:56.783Z,47.08
2018-09-26T11:06:25.098Z,49.60
2018-09-26T11:08:53.402Z,39.45
2018-09-26T11:11:22.229Z,48.63
2018-09-26T11:13:50.463Z,52.13
2018-09-26T11:16:19.063Z,43.90
2018-09-26T11:18:47.778Z,43.85
2018-09-26T11:21:16.145Z,129.12
2018-09-26T11:23:44.422Z,74.15
2018-09-26T11:26:13.028Z,223.47
2018-09-26T11:28:41.186Z,250.55
2018-09-26T11:31:09.439Z,228.90
2018-09-26T11:33:37.867Z,221.72
2018-09-26T11:36:06.106Z,208.28
2018-09-26T11:38:34.410Z,232.20
2018-09-26T11:41:03.394Z,204.40
2018-09-26T11:43:31.747Z,196.93
2018-09-26T11:46:00.047Z,182.20
2018-09-26T11:48:28.314Z,175.30
2018-09-26T11:50:56.574Z,161.75
2018-09-26T11:53:24.983Z,140.75
2018-09-26T11:55:54.022Z,130.50
2018-09-26T11:58:22.382Z,121.13
2018-09-26T12:00:51.363Z,120.82
2018-09-26T12:03:19.647Z,134.30
2018-09-26T12:05:47.992Z,131.22
2018-09-26T12:08:16.471Z,140.92
2018-09-26T12:10:44.762Z,136.92
2018-09-26T12:13:13.095Z,141.80
2018-09-26T12:15:41.827Z,135.82
2018-09-26T12:18:10.162Z,131.43
2018-09-26T12:20:38.470Z,130.57
2018-09-26T12:23:07.491Z,129.00
2018-09-26T12:25:35.756Z,117.95
2018-09-26T12:28:04.013Z,130.70
2018-09-26T12:30:32.393Z,126.22
2018-09-26T12:33:00.870Z,121.22
2018-09-26T12:35:29.206Z,120.57
2018-09-26T12:37:57.658Z,115.28
2018-09-26T12:40:26.209Z,111.12
2018-09-26T12:42:54.465Z,111.22
2018-09-26T12:45:23.610Z,97.65
2018-09-26T12:47:51.981Z,83.50
2018-09-26T12:50:20.244Z,83.15
2018-09-26T12:52:48.517Z,72.78
2018-09-26T12:55:16.770Z,81.50
2018-09-26T12:57:45.638Z,81.22
2018-09-26T13:00:14.401Z,83.27
2018-09-26T13:02:42.593Z,70.30
2018-09-26T13:05:10.858Z,79.82
2018-09-26T13:07:39.741Z,71.45
2018-09-26T13:10:08.012Z,73.60
2018-09-26T13:12:36.287Z,68.25
2018-09-26T13:15:05.307Z,63.20
2018-09-26T13:17:33.544Z,61.53
2018-09-26T13:20:01.819Z,59.48
2018-09-26T13:22:30.551Z,60.83
2018-09-26T13:24:58.795Z,59.23
2018-09-26T13:27:27.113Z,51.28
2018-09-26T13:29:55.926Z,55.08
2018-09-26T13:32:24.317Z,54.45
2018-09-26T13:34:52.490Z,54.95
2018-09-26T13:37:21.283Z,50.65
2018-09-26T13:39:49.627Z,52.60
2018-09-26T13:42:17.946Z,58.17
2018-09-26T13:44:47.986Z,52.10
2018-09-26T13:47:16.229Z,44.13
2018-09-26T13:49:44.471Z,62.80
2018-09-26T13:52:12.962Z,51.45
2018-09-26T13:54:41.186Z,43.95
2018-09-26T13:57:10.655Z,50.10
2018-09-26T13:59:39.250Z,52.50
2018-09-26T14:02:07.510Z,48.85
2018-09-26T14:04:37.474Z,54.88
2018-09-26T14:07:05.939Z,55.12
2018-09-26T14:09:34.355Z,55.70
2018-09-26T14:12:02.982Z,52.53
2018-09-26T14:14:31.515Z,54.23
2018-09-26T14:16:59.807Z,47.20
2018-09-26T14:19:28.246Z,49.80
2018-09-26T14:21:57.058Z,51.95
2018-09-26T14:24:25.308Z,46.55
2018-09-26T14:26:53.606Z,45.83
2018-09-26T14:29:21.952Z,42.98
2018-09-26T14:31:50.152Z,42.75
2018-09-26T14:34:18.398Z,40.30
2018-09-26T14:36:47.117Z,37.60
2018-09-26T14:39:15.387Z,39.13
2018-09-26T14:41:43.609Z,34.63
2018-09-26T14:44:12.601Z,39.78
2018-09-26T14:46:41.037Z,34.48
2018-09-26T14:49:09.408Z,38.40
2018-09-26T14:51:38.032Z,34.63
2018-09-26T14:54:06.322Z,36.88
2018-09-26T14:56:34.560Z,33.38
2018-09-26T14:59:03.737Z,33.60
2018-09-26T15:01:32.047Z,34.33
2018-09-26T15:04:00.343Z,38.35
2018-09-26T15:06:28.910Z,33.33
2018-09-26T15:08:57.179Z,35.25
2018-09-26T15:11:25.523Z,38.17
2018-09-26T15:13:53.806Z,35.65
2018-09-26T15:16:22.164Z,32.08
2018-09-26T15:18:50.419Z,32.93
2018-09-26T15:21:18.877Z,31.52
2018-09-26T15:23:47.127Z,37.70
2018-09-26T15:26:15.512Z,32.42
2018-09-26T15:28:44.422Z,28.90
2018-09-26T15:31:12.674Z,32.13
2018-09-26T15:33:41.047Z,34.08
2018-09-26T15:36:09.602Z,34.60
2018-09-26T15:38:38.220Z,32.15
2018-09-26T15:41:06.829Z,34.73
2018-09-26T15:43:35.726Z,27.15
2018-09-26T15:46:04.175Z,25.12
2018-09-26T15:48:32.543Z,26.37
2018-09-26T15:51:02.172Z,29.82
2018-09-26T15:53:30.439Z,28.62
2018-09-26T15:55:58.701Z,23.85
2018-09-26T15:58:27.183Z,26.05
2018-09-26T16:00:56.161Z,26.23
2018-09-26T16:03:24.423Z,31.02
2018-09-26T16:05:52.706Z,25.57
2018-09-26T16:08:21.053Z,24.77
2018-09-26T16:10:49.319Z,24.75
2018-09-26T16:13:18.341Z,24.25
2018-09-26T16:15:47.711Z,23.95
2018-09-26T16:18:16.050Z,21.55
2018-09-26T16:20:44.486Z,20.75
2018-09-26T16:23:12.747Z,26.05
2018-09-26T16:25:41.060Z,21.33
2018-09-26T16:28:09.356Z,23.45
2018-09-26T16:30:37.571Z,23.57
2018-09-26T16:33:05.926Z,19.92
2018-09-26T16:35:35.179Z,22.35
2018-09-26T16:38:03.511Z,17.98
2018-09-26T16:40:31.879Z,21.85
2018-09-26T16:43:00.510Z,18.50
2018-09-26T16:45:28.769Z,21.23
2018-09-26T16:47:57.018Z,19.32
2018-09-26T16:50:25.336Z,20.70
2018-09-26T16:52:53.646Z,21.20
2018-09-26T16:55:21.975Z,17.23
2018-09-26T16:57:50.894Z,17.50
2018-09-26T17:00:19.272Z,16.60
2018-09-26T17:02:48.403Z,18.55
2018-09-26T17:05:17.992Z,18.10
2018-09-26T17:07:46.247Z,18.90
2018-09-26T17:10:14.582Z,15.93
2018-09-26T17:12:43.318Z,16.42
2018-09-26T17:15:11.739Z,15.75
2018-09-26T17:17:40.019Z,18.85
2018-09-26T17:20:08.338Z,20.48
2018-09-26T17:22:36.662Z,21.75
2018-09-26T17:25:04.899Z,16.05
2018-09-26T17:27:34.211Z,14.80
2018-09-26T17:30:02.495Z,18.52
2018-09-26T17:32:30.792Z,17.45
2018-09-26T17:35:00.300Z,21.50
2018-09-26T17:37:28.736Z,16.48
2018-09-26T17:39:56.975Z,16.15
2018-09-26T17:42:25.603Z,14.58
2018-09-26T17:44:53.883Z,19.12
2018-09-26T17:47:22.277Z,18.42
2018-09-26T17:49:50.747Z,20.92
2018-09-26T17:52:19.082Z,18.75
2018-09-26T17:54:47.382Z,18.30
2018-09-26T17:57:15.653Z,21.60
2018-09-26T17:59:43.931Z,18.98
2018-09-26T18:02:12.235Z,24.92
2018-09-26T18:04:41.943Z,21.55
2018-09-26T18:07:10.327Z,20.55
2018-09-26T18:09:38.586Z,18.80
2018-09-26T18:12:06.945Z,23.35
2018-09-26T18:14:35.370Z,20.08
2018-09-26T18:17:03.662Z,22.27
2018-09-26T18:19:31.967Z,25.25
2018-09-26T18:22:00.227Z,23.80
2018-09-26T18:24:28.565Z,22.58
2018-09-26T18:26:57.461Z,21.15
2018-09-26T18:29:25.711Z,19.57
2018-09-26T18:31:54.024Z,18.30
2018-09-26T18:34:22.603Z,20.92
2018-09-26T18:36:50.903Z,23.87
2018-09-26T18:39:19.228Z,18.10
2018-09-26T18:41:47.744Z,19.82
2018-09-26T18:44:16.436Z,24.98
2018-09-26T18:46:44.711Z,18.27
2018-09-26T18:49:15.963Z,16.73
2018-09-26T18:51:44.229Z,19.05
2018-09-26T18:54:12.475Z,22.02
2018-09-26T18:56:41.190Z,17.60
2018-09-26T18:59:09.555Z,18.20
2018-09-26T19:01:37.811Z,18.98
2018-09-26T19:04:08.855Z,17.50
2018-09-26T19:06:38.070Z,21.23
2018-09-26T19:09:08.595Z,31.65
2018-09-26T19:11:36.980Z,24.70
2018-09-26T19:14:05.275Z,17.17
2018-09-26T19:16:34.242Z,15.68
2018-09-26T19:19:02.529Z,15.53
2018-09-26T19:21:31.148Z,15.70
2018-09-26T19:23:59.780Z,24.90
2018-09-26T19:26:28.108Z,18.17
2018-09-26T19:28:56.420Z,15.75
2018-09-26T19:31:27.117Z,15.38
2018-09-26T19:33:55.387Z,16.30
2018-09-26T19:36:23.721Z,16.17
2018-09-26T19:38:52.961Z,15.10
2018-09-26T19:41:21.223Z,16.82
2018-09-26T19:43:49.539Z,16.17
2018-09-26T19:46:17.891Z,17.40
2018-09-26T19:48:46.176Z,14.75
2018-09-26T19:51:14.542Z,15.20
2018-09-26T19:53:42.944Z,13.62
2018-09-26T19:56:11.305Z,11.95
2018-09-26T19:58:39.481Z,13.80
2018-09-26T20:01:08.963Z,13.35
2018-09-26T20:03:39.244Z,14.00
2018-09-26T20:06:07.700Z,13.05
2018-09-26T20:08:36.642Z,12.15
2018-09-26T20:11:04.886Z,12.28
2018-09-26T20:13:33.132Z,12.70
2018-09-26T20:16:01.469Z,10.43
2018-09-26T20:18:29.807Z,11.48
2018-09-26T20:20:58.064Z,13.15
2018-09-26T20:23:27.173Z,16.15
2018-09-26T20:25:55.319Z,12.00
2018-09-26T20:28:23.582Z,13.13
2018-09-26T20:30:51.954Z,11.57
2018-09-26T20:33:20.212Z,10.90
2018-09-26T20:35:48.564Z,10.48
2018-09-26T20:38:17.153Z,16.02
2018-09-26T20:40:45.416Z,11.30
2018-09-26T20:43:13.758Z,11.28
2018-09-26T20:45:42.765Z,9.03
2018-09-26T20:48:11.039Z,8.70
2018-09-26T20:50:39.293Z,10.78
2018-09-26T20:53:07.776Z,12.28
2018-09-26T20:55:36.051Z,11.12
2018-09-26T20:58:04.341Z,10.95
2018-09-26T21:00:32.741Z,10.98
2018-09-26T21:03:00.968Z,9.70
2018-09-26T21:05:30.143Z,10.95
2018-09-26T21:07:59.005Z,10.75
2018-09-26T21:10:27.337Z,12.23
2018-09-26T21:12:55.571Z,12.00
2018-09-26T21:15:24.354Z,10.20
2018-09-26T21:17:52.690Z,9.48
2018-09-26T21:20:21.896Z,10.60
2018-09-26T21:22:50.518Z,8.03
2018-09-26T21:25:18.778Z,9.23
2018-09-26T21:27:47.133Z,7.80
2018-09-26T21:30:15.478Z,10.23
2018-09-26T21:32:43.735Z,7.47
2018-09-26T21:35:12.071Z,10.85
2018-09-26T21:37:40.330Z,9.35
2018-09-26T21:40:08.587Z,6.85
2018-09-26T21:42:37.958Z,8.28
2018-09-26T21:45:06.594Z,9.58
2018-09-26T21:47:34.840Z,7.33
2018-09-26T21:50:03.168Z,8.80
2018-09-26T21:52:31.390Z,6.78
2018-09-26T21:54:59.664Z,7.72
2018-09-26T21:57:28.192Z,6.75
2018-09-26T21:59:56.678Z,5.50
2018-09-26T22:02:25.015Z,6.05
2018-09-26T22:04:53.879Z,6.67
2018-09-26T22:07:22.593Z,6.55
2018-09-26T22:09:50.838Z,7.72
2018-09-26T22:12:19.731Z,6.15
2018-09-26T22:14:47.983Z,7.15
2018-09-26T22:17:16.214Z,6.70
2018-09-26T22:19:44.879Z,5.87
2018-09-26T22:22:13.125Z,5.65
2018-09-26T22:24:41.379Z,5.45
2018-09-26T22:27:10.330Z,5.60
2018-09-26T22:29:38.577Z,6.08
2018-09-26T22:32:07.022Z,5.85
2018-09-26T22:34:35.319Z,6.05
2018-09-26T22:37:03.577Z,5.50
2018-09-26T22:39:31.894Z,5.87
2018-09-26T22:42:00.386Z,6.17
2018-09-26T22:44:28.624Z,8.23
2018-09-26T22:46:56.866Z,6.08
2018-09-26T22:49:25.524Z,5.20
2018-09-26T22:51:53.777Z,6.42
2018-09-26T22:54:22.168Z,5.10
2018-09-26T22:56:50.465Z,6.22
2018-09-26T22:59:18.701Z,6.00
2018-09-26T23:01:46.930Z,4.65
2018-09-26T23:04:17.257Z,4.28
2018-09-26T23:06:45.526Z,4.47
2018-09-26T23:09:14.323Z,6.28
2018-09-26T23:11:42.970Z,4.85
2018-09-26T23:14:11.299Z,4.65
2018-09-26T23:16:39.553Z,4.67
2018-09-26T23:19:08.026Z,4.47
2018-09-26T23:21:36.282Z,4.33
2018-09-26T23:24:04.542Z,6.15
2018-09-26T23:26:36.238Z,4.53
2018-09-26T23:29:04.510Z,5.37
2018-09-26T23:31:32.755Z,4.12
2018-09-26T23:34:01.375Z,5.75
2018-09-26T23:36:29.621Z,4.53
2018-09-26T23:38:57.863Z,5.60
2018-09-26T23:41:26.397Z,4.90
2018-09-26T23:43:54.747Z,4.87
2018-09-26T23:46:22.990Z,4.37
2018-09-26T23:48:51.642Z,4.33
2018-09-26T23:51:19.874Z,4.67
2018-09-26T23:53:48.198Z,4.33
2018-09-26T23:56:17.191Z,4.22
2018-09-26T23:58:45.522Z,3.65
